Airfield :
LOGIN :

Register | Disclaimer

   EN    FR    IT 

 










Legend :    VFR   Marginal VFR   IFR   Intensive IFR   Very Intensive IFR
Visi :
Ceiling :
>= 8 km
>= 3000ft
5 to 8 km
1000 to 3000 ft
1500m to 5 km
500 to 1000 ft
800 to 1500m
200 to 500 ft
< 800m
< 200 ft
Symbols :   Thunderstorms  Fog  Heavy snow  Heavy precipitations  Wind > 20 kt
SIGMETs :     Misc.  Thunderstorms  Icing  Turbulence  Mountain Waves  Volcanic Ashes







- Airport Elevation : 909 ft
- IATA code : KSF


EDVK - Kassel Calden

CURRENT METAR :
  • 210820Z 33012KT 7000 OVC007 13/12 Q1007

EXPIRED METARs :
  • 210750Z 33015KT 9000 OVC009 13/12 Q1006
  • 210720Z 33016KT 9000 OVC008 13/12 Q1006
  • 210650Z 33017KT 9000 OVC007 13/12 Q1005
  • 210620Z 33015KT 9000 OVC006 13/12 Q1005
  • 210550Z 33016KT 9000 OVC007 13/12 Q1004

TAF TAF EDVK
Valid from the 21 at 09:00 until the 21 at 18:00 UTC


210800Z 2109/2118 33015G25KT 9000 OVC010
TEMPO 2109/2118 4500 -RADZ OVC008
BECMG 2116/2118 33008KT
No reported NOTAMs for that airfield.



MET'MAP, your aeronautical weather chart ! - Copyright ORBIFLY December 2007 - Disclaimer

ORBIFLY MET'MAP TEAM :

Programming & Development : Alexandra Zaïnal
Concept & Development : Baudouin d'Aumeries
Co-Development & Prog : Marc-Olivier Méhu
Technical & hardware support : Manuel Goepfert

Contact : metmap@orbifly.com




SOURCES & CREDITS :

   NOAA